createdAt,value
2023-03-03T00:03:08.770Z,114.43365
2023-03-03T00:08:10.425Z,223.1512
2023-03-03T00:13:12.237Z,266.63785
2023-03-03T00:18:13.902Z,337.85875
2023-03-03T00:23:15.547Z,406.09415
2023-03-03T00:28:17.530Z,417.08515
2023-03-03T00:33:19.164Z,396.92865
2023-03-03T00:38:20.781Z,338.24665
2023-03-03T00:43:22.490Z,294.798
2023-03-03T00:48:24.104Z,286.38745
2023-03-03T00:53:25.692Z,244.89175
2023-03-03T00:58:27.355Z,208.2659
2023-03-03T01:03:29.087Z,165.5722
2023-03-03T01:08:30.675Z,129.18365
2023-03-03T01:13:32.322Z,108.1351
2023-03-03T01:18:33.932Z,92.8187
2023-03-03T01:23:35.543Z,51.4903
2023-03-03T01:28:37.229Z,44.94325
2023-03-03T01:33:38.856Z,28.8618
2023-03-03T01:38:40.534Z,18.5896
2023-03-03T01:43:42.265Z,7.15555
2023-03-03T01:48:43.914Z,1.3463
2023-03-03T01:53:45.524Z,0
2023-03-03T01:58:47.181Z,0
2023-03-03T02:03:48.817Z,0
2023-03-03T02:08:50.450Z,0
2023-03-03T02:13:52.064Z,0
2023-03-03T02:18:53.682Z,0
2023-03-03T02:23:55.327Z,0
2023-03-03T02:28:56.949Z,0
2023-03-03T02:33:58.741Z,0
2023-03-03T02:39:00.388Z,0
2023-03-03T02:44:03.214Z,0
2023-03-03T02:49:04.849Z,0
2023-03-03T02:54:06.462Z,0
2023-03-03T02:59:08.064Z,0
2023-03-03T03:04:09.803Z,0
2023-03-03T03:09:11.483Z,0
2023-03-03T03:14:13.220Z,0
2023-03-03T03:19:15.049Z,0
2023-03-03T03:24:16.670Z,0
2023-03-03T03:29:18.298Z,0
2023-03-03T03:34:20.125Z,0
2023-03-03T03:39:21.927Z,0
2023-03-03T03:44:23.519Z,0
2023-03-03T03:49:25.161Z,0
2023-03-03T03:54:26.754Z,0
2023-03-03T03:59:28.494Z,0
2023-03-03T04:04:30.119Z,0
2023-03-03T04:09:31.735Z,0
2023-03-03T04:14:33.368Z,0
2023-03-03T04:19:35.027Z,0
2023-03-03T04:24:36.740Z,0
2023-03-03T04:29:38.340Z,0
2023-03-03T04:34:40.019Z,0
2023-03-03T04:39:41.654Z,0
2023-03-03T04:44:43.540Z,0
2023-03-03T04:49:45.190Z,0
2023-03-03T04:54:46.832Z,0
2023-03-03T04:59:48.580Z,0
2023-03-03T05:04:50.330Z,0
2023-03-03T05:09:52.051Z,0
2023-03-03T05:14:53.647Z,0
2023-03-03T05:19:55.459Z,0
2023-03-03T05:24:57.110Z,0
2023-03-03T05:29:58.767Z,0
2023-03-03T05:35:00.402Z,0
2023-03-03T05:40:02.099Z,0
2023-03-03T05:45:03.660Z,0
2023-03-03T05:50:05.344Z,0
2023-03-03T05:55:06.951Z,0
2023-03-03T06:00:08.598Z,0
2023-03-03T06:05:10.202Z,0
2023-03-03T06:10:11.822Z,0
2023-03-03T06:15:13.529Z,0
2023-03-03T06:20:15.228Z,0
2023-03-03T06:25:16.809Z,0
2023-03-03T06:30:18.546Z,0
2023-03-03T06:35:20.243Z,0
2023-03-03T06:40:21.881Z,0
2023-03-03T06:45:23.545Z,0
2023-03-03T06:50:25.253Z,0
2023-03-03T06:55:26.865Z,0
2023-03-03T07:00:30.782Z,0
2023-03-03T07:05:32.965Z,0
2023-03-03T07:10:34.642Z,0
2023-03-03T07:15:36.277Z,0
2023-03-03T07:20:37.880Z,0
2023-03-03T07:25:39.569Z,0
2023-03-03T07:30:41.215Z,0
2023-03-03T07:35:42.937Z,0
2023-03-03T07:40:44.717Z,0
2023-03-03T07:45:46.552Z,0
2023-03-03T07:50:48.215Z,0
2023-03-03T07:55:49.844Z,0
2023-03-03T08:00:51.556Z,0
2023-03-03T08:05:53.404Z,0
2023-03-03T08:10:55.071Z,0
2023-03-03T08:15:56.713Z,0
2023-03-03T08:20:58.461Z,0
2023-03-03T08:26:00.088Z,0
2023-03-03T08:31:15.307Z,0
2023-03-03T08:36:19.996Z,0
2023-03-03T08:41:21.620Z,0
2023-03-03T08:46:23.435Z,0
2023-03-03T08:51:25.046Z,0
2023-03-03T08:56:26.672Z,0
2023-03-03T09:01:28.493Z,0
2023-03-03T09:06:30.366Z,0
2023-03-03T09:11:31.960Z,0
2023-03-03T09:16:33.621Z,0
2023-03-03T09:21:35.415Z,0
2023-03-03T09:26:37.037Z,0
2023-03-03T09:31:38.732Z,0
2023-03-03T09:36:40.371Z,0
2023-03-03T09:41:42.018Z,0
2023-03-03T09:46:43.644Z,0
2023-03-03T09:51:45.333Z,0
2023-03-03T09:56:47.029Z,0
2023-03-03T10:01:48.629Z,0
2023-03-03T10:06:50.629Z,0
2023-03-03T10:11:52.476Z,0
2023-03-03T10:16:54.191Z,0
2023-03-03T10:21:55.896Z,0
2023-03-03T10:27:11.968Z,0
2023-03-03T10:32:14.699Z,0
2023-03-03T10:37:16.414Z,0
2023-03-03T10:42:18.038Z,0
2023-03-03T10:47:19.813Z,0
2023-03-03T10:52:21.402Z,0
2023-03-03T10:57:23.048Z,0
2023-03-03T11:02:24.704Z,0
2023-03-03T11:07:26.349Z,0
2023-03-03T11:12:27.940Z,0
2023-03-03T11:17:29.572Z,0
2023-03-03T11:22:31.223Z,0
2023-03-03T11:27:32.879Z,0
2023-03-03T11:32:34.703Z,0
2023-03-03T11:37:36.316Z,0
2023-03-03T11:42:37.951Z,0
2023-03-03T11:47:39.643Z,0
2023-03-03T11:52:41.326Z,0
2023-03-03T11:57:42.922Z,0
2023-03-03T12:02:44.653Z,0
2023-03-03T12:07:46.292Z,0
2023-03-03T12:12:47.929Z,0
2023-03-03T12:17:50.761Z,0
2023-03-03T12:23:05.856Z,0
2023-03-03T12:28:08.273Z,0
2023-03-03T12:33:09.911Z,0
2023-03-03T12:38:11.561Z,0
2023-03-03T12:43:13.187Z,0
2023-03-03T12:48:14.881Z,0
2023-03-03T12:53:16.598Z,0
2023-03-03T12:58:18.190Z,0
2023-03-03T13:03:19.839Z,0
2023-03-03T13:08:21.565Z,0
2023-03-03T13:13:23.241Z,0
2023-03-03T13:18:24.843Z,0
2023-03-03T13:23:26.672Z,0
2023-03-03T13:28:28.336Z,0
2023-03-03T13:33:29.918Z,0
2023-03-03T13:38:31.490Z,0
2023-03-03T13:43:33.104Z,0
2023-03-03T13:48:34.797Z,0
2023-03-03T13:53:36.382Z,0
2023-03-03T13:58:37.987Z,0
2023-03-03T14:03:39.704Z,0
2023-03-03T14:08:41.344Z,2.3237
2023-03-03T14:13:42.984Z,5.80925
2023-03-03T14:18:44.639Z,3.24595
2023-03-03T14:23:46.271Z,17.79665
2023-03-03T14:28:47.936Z,33.08515
2023-03-03T14:33:49.744Z,51.4903
2023-03-03T14:38:53.443Z,73.9895
2023-03-03T14:43:55.228Z,97.2265
2023-03-03T14:48:56.894Z,130.1272
2023-03-03T14:53:58.463Z,162.73315
2023-03-03T14:59:00.142Z,187.7405
2023-03-03T15:04:01.892Z,218.2985
2023-03-03T15:09:03.504Z,239.15665
2023-03-03T15:14:05.248Z,313.55305
2023-03-03T15:19:06.877Z,354.91945
2023-03-03T15:24:08.545Z,424.96505
2023-03-03T15:29:10.224Z,638.8117
2023-03-03T15:34:11.999Z,458.26895
2023-03-03T15:39:13.668Z,605.97405
2023-03-03T15:44:15.343Z,596.42065
2023-03-03T15:49:17.022Z,634.872
2023-03-03T15:54:18.681Z,710.9646
2023-03-03T15:59:20.243Z,734.8481
2023-03-03T16:04:22.027Z,639.90545
2023-03-03T16:09:23.674Z,663.1596
2023-03-03T16:14:25.413Z,803.5057
2023-03-03T16:19:27.014Z,937.91325
2023-03-03T16:24:28.620Z,1070.53145
2023-03-03T16:29:30.274Z,1040.2302
2023-03-03T16:34:32.071Z,1279.5597
2023-03-03T16:39:33.673Z,1376.4743
2023-03-03T16:44:35.397Z,1716.742
2023-03-03T16:49:36.997Z,1762.82625
2023-03-03T16:54:38.708Z,2088.9446
2023-03-03T16:59:40.365Z,2110.7783
2023-03-03T17:04:42.237Z,1921.48065
2023-03-03T17:09:43.900Z,1770.04855
2023-03-03T17:14:45.475Z,1885.258
2023-03-03T17:19:47.219Z,1855.9703
2023-03-03T17:24:48.943Z,1856.22705
2023-03-03T17:29:50.825Z,1601.3903
2023-03-03T17:34:52.446Z,1747.17675
2023-03-03T17:39:54.071Z,1667.30385
2023-03-03T17:44:55.686Z,1516.42695
2023-03-03T17:49:57.276Z,1391.38835
2023-03-03T17:54:58.858Z,1430.8361
2023-03-03T18:00:00.515Z,1599.71125
2023-03-03T18:05:02.201Z,1730.85385
2023-03-03T18:10:03.814Z,1661.198
2023-03-03T18:15:05.487Z,1629.34885
2023-03-03T18:20:07.335Z,1525.446
2023-03-03T18:25:08.949Z,1573.156
2023-03-03T18:30:10.654Z,1807.72225
2023-03-03T18:35:12.277Z,1927.7997
2023-03-03T18:40:14.024Z,1908.24985
2023-03-03T18:45:15.706Z,1844.5687
2023-03-03T18:50:17.409Z,1739.66945
2023-03-03T18:55:19.098Z,1855.4304
2023-03-03T19:00:20.807Z,2003.15265
2023-03-03T19:05:22.491Z,2209.77935
2023-03-03T19:10:24.139Z,2462.8629
2023-03-03T19:15:25.943Z,2565.0144
2023-03-03T19:20:29.933Z,2760.89155
2023-03-03T19:25:32.428Z,2554.9438
2023-03-03T19:30:34.105Z,2682.1425
2023-03-03T19:35:35.836Z,2589.56155
2023-03-03T19:40:37.515Z,2337.67415
2023-03-03T19:45:39.251Z,2511.76905
2023-03-03T19:50:40.974Z,3134.37
2023-03-03T19:55:42.805Z,2240.50095
2023-03-03T20:00:44.477Z,2272.4794
2023-03-03T20:05:46.087Z,2101.0048
2023-03-03T20:10:47.713Z,2292.74805
2023-03-03T20:15:49.400Z,2305.9886
2023-03-03T20:20:51.051Z,2714.374
2023-03-03T20:25:52.720Z,2160.4589
2023-03-03T20:30:54.649Z,4113.01425
2023-03-03T20:35:56.343Z,2543.1163
2023-03-03T20:40:57.990Z,4099.1805
2023-03-03T20:45:59.635Z,2739.76925
2023-03-03T20:51:01.262Z,2157.1615
2023-03-03T20:56:02.965Z,2260.9179
2023-03-03T21:01:04.625Z,2364.04865
2023-03-03T21:06:06.225Z,2068.9179
2023-03-03T21:11:07.965Z,1784.3541
2023-03-03T21:16:09.606Z,1630.61915
2023-03-03T21:21:11.237Z,1365.03285
2023-03-03T21:26:12.881Z,1211.9634
2023-03-03T21:31:14.513Z,1151.1973
2023-03-03T21:36:16.137Z,1256.262
2023-03-03T21:41:17.847Z,1362.70915
2023-03-03T21:46:19.526Z,1217.99325
2023-03-03T21:51:21.303Z,1171.77785
2023-03-03T21:56:23.168Z,1328.68275
2023-03-03T22:01:24.855Z,1662.8372
2023-03-03T22:06:26.625Z,1733.96865
2023-03-03T22:11:28.350Z,1340.20995
2023-03-03T22:16:29.959Z,881.03775
2023-03-03T22:21:31.600Z,954.82565
2023-03-03T22:26:33.206Z,1422.70315
2023-03-03T22:31:35.184Z,1675.1592
2023-03-03T22:36:36.862Z,1553.91805
2023-03-03T22:41:38.474Z,1211.40635
2023-03-03T22:46:40.246Z,2378.54605
2023-03-03T22:51:41.985Z,2699.97715
2023-03-03T22:56:43.753Z,2460.3223
2023-03-03T23:01:45.392Z,2287.6307
2023-03-03T23:06:47.134Z,2088.61975
2023-03-03T23:11:48.773Z,2099.20755
2023-03-03T23:16:50.423Z,1762.3415
2023-03-03T23:21:52.004Z,1390.49065
2023-03-03T23:26:53.622Z,1854.7797
2023-03-03T23:31:55.329Z,1445.5615
2023-03-03T23:36:57.113Z,1209.9131
2023-03-03T23:41:58.725Z,1012.4445
2023-03-03T23:47:00.335Z,1012.22205
2023-03-03T23:52:01.914Z,859.15075
2023-03-03T23:57:03.590Z,717.27205
